Atlantic - Newfoundland: Past 24 Hour Conditions

 

Natashquan Airport

11:00 PM EST 21 November 2014
This table is a summary of hourly weather conditions for the past 24 hours.
Date / Time
(EST)
Wind(knots) Conditions Visibility(km) Pressure(kPa) Air tempC) Relative humidity(%) Dew pointC) Wind Chill
21 November 2014
23:00 WNW 9 Clear 16 100.6 -11 77 -14 -18
22:00 WNW 9 Clear 16 100.6 -10 75 -13 -17
21:00 WNW 10 Clear 16 100.5 -10 74 -13 -17
20:00 WNW 10 Clear 16 100.5 -9 70 -14 -17
19:00 WNW 11 gust 18 Clear 16 100.5 -9 67 -14 -16
18:00 NW 11 Clear 16 100.4 -8 71 -13 -16
17:00 WNW 6 Partly Cloudy 16 100.3 -8 72 -13 -14
16:00 NW 9 Mainly Clear 16 100.2 -7 70 -12 -14
15:00 NNW 13 Cloudy 16 100.1 -6 68 -11 -13
14:00 NNW 9 gust 16 Mostly Cloudy 16 100.0 -5 70 -10 -11
13:00 NNW 11 gust 16 Mostly Cloudy 16 99.9 -4 73 -8 -11
12:00 NNW 11 gust 16 Sunny 16 99.9 -5 76 -9 -12
11:00 NW 11 gust 16 Sunny 16 99.9 -5 77 -8 -12
10:00 NNW 8 Mainly Sunny 16 99.9 -5 79 -8 -11
9:00 NNW 6 Mainly Sunny 16 100.0 -6 84 -8 -11
8:00 NNW 5 Mostly Cloudy 16 100.0 -6 86 -8 -10
7:00 N 7 Cloudy 16 100.0 -6 87 -7 -11
6:00 NNW 9 Cloudy 16 100.0 -6 88 -8 -12
5:00 NNE 11 Light Snow 16 100.0 -5 88 -7 -12
4:00 N 9 gust 15 Light Snow 16 100.0 -5 90 -6 -11
3:00 NNE 8 Light Snow 11 100.0 -5 91 -6 -10
2:00 ENE 8 Light Snow 16 100.1 -4 92 -5 -10
1:00 ENE 10 gust 15 Light Snow 4 100.2 -4 92 -5 -10
0:00 ENE 10 Cloudy 16 100.3 -4 90 -5 -10
20 November 2014
23:00 NE 10 gust 15 Light Snow 16 100.3 -4 90 -6 -10
 
Map of Atlantic - Newfoundland marine weather areas Southwestern Grand Banks - 44138 Banquereau - 44139 Tail of the Bank - 44140 Nickerson Bank - 44251 Northeast Burgeo Bank - 44255 Blanc-Sablon Airport Cap Whittle Chevery Natashquan Airport Heath Point Miscou Island Grand Étang Ingonish Beach North Mountain St.Paul Island J.A. Douglas McCurdy Sydney Airport Charlottetown Airport East Point North Cape Argentia Bonavista Burgeo Cape Race Corner Brook Daniel's Harbour Englee Ferolle Point La Scie Port aux Basques Rocky Harbour Sagona Island St. Anthony Airport St. John's Int'l Airport St. Lawrence Stephenville Airport Twillingate Winterland Wreckhouse Cartwright Airport Mary's Harbour Grates Cove Pool's Island Marticot Island Long Pond Îles de la Madeleine Airport
Legend: buoyBuoy land stationLand Station